Time;durP1;ratioP1;P1;durP2;ratioP2;P2;SDS_P1;SDS_P2;PMS_P1;PMS_P2;Temp;Humidity;BMP_temperature;BMP_pressure;BME280_temperature;BME280_humidity;BME280_pressure;Samples;Min_cycle;Max_cycle;Signal;HPM_P1;HPM_P2
2023/08/20 00:01:03;;;;;;;13.15;8.00;;;;;;;-143.21;51.16;71322.69;5070844;28;20224;-84
2023/08/20 00:03:32;;;;;;;11.13;7.28;;;;;;;-143.21;51.40;71326.66;5071020;28;20197;-85
2023/08/20 00:05:59;;;;;;;11.32;7.55;;;;;;;-143.21;51.43;71328.63;5071792;28;20200;-85
2023/08/20 00:08:26;;;;;;;8.68;7.63;;;;;;;-143.21;51.17;71328.63;5077536;28;20227;-85
2023/08/20 00:10:53;;;;;;;12.50;7.45;;;;;;;-143.21;51.39;71332.59;5078087;28;20189;-85
2023/08/20 00:13:20;;;;;;;9.75;7.95;;;;;;;-143.21;51.41;71330.63;5077974;28;20197;-85
2023/08/20 00:15:47;;;;;;;14.35;7.65;;;;;;;-143.21;51.39;71332.59;5077370;28;20594;-85
2023/08/20 00:18:15;;;;;;;11.02;7.60;;;;;;;-143.21;50.96;71320.69;5078215;28;20209;-85
2023/08/20 00:20:45;;;;;;;16.52;7.88;;;;;;;-143.21;51.10;71316.75;5077973;28;20213;-83
2023/08/20 00:23:12;;;;;;;10.13;7.50;;;;;;;-143.21;50.99;71310.78;5078066;28;20558;-84
2023/08/20 00:25:40;;;;;;;10.60;7.80;;;;;;;-143.21;50.28;71306.81;5077621;28;20200;-84
2023/08/20 00:28:07;;;;;;;9.10;7.75;;;;;;;-143.21;50.60;71312.78;5077414;28;20197;-85
2023/08/20 00:30:33;;;;;;;11.90;7.50;;;;;;;-143.21;50.48;71314.75;5076646;28;20193;-85
2023/08/20 00:33:00;;;;;;;12.48;7.38;;;;;;;-143.21;50.85;71314.75;5064283;28;20254;-84
2023/08/20 00:35:27;;;;;;;9.13;7.30;;;;;;;-143.21;50.68;71318.72;5077073;28;20207;-85
2023/08/20 00:37:55;;;;;;;9.77;8.13;;;;;;;-143.21;51.06;71320.69;5077515;28;20208;-85
2023/08/20 00:40:22;;;;;;;17.45;7.72;;;;;;;-143.21;50.82;71316.75;5077382;28;20223;-85
2023/08/20 00:42:49;;;;;;;11.90;7.63;;;;;;;-143.21;50.70;71314.75;5078838;28;20213;-86
2023/08/20 00:45:17;;;;;;;9.27;7.20;;;;;;;-143.21;50.75;71312.78;5077257;28;20205;-85
2023/08/20 00:47:44;;;;;;;9.25;7.13;;;;;;;-143.21;51.20;71320.69;5077297;28;20680;-84
2023/08/20 00:50:12;;;;;;;10.52;7.85;;;;;;;-143.21;51.00;71320.69;5077493;28;20197;-84
2023/08/20 00:52:39;;;;;;;12.13;7.70;;;;;;;-143.21;50.96;71324.66;5078135;28;20270;-83
2023/08/20 00:55:10;;;;;;;9.63;7.63;;;;;;;-143.21;50.63;71314.75;5077306;28;20746;-85
2023/08/20 00:57:37;;;;;;;11.63;7.55;;;;;;;-143.21;50.78;71310.78;5077398;28;20231;-84
2023/08/20 01:00:09;;;;;;;10.82;7.82;;;;;;;-143.21;50.52;71300.88;5076586;28;20754;-82
2023/08/20 01:02:36;;;;;;;9.40;7.75;;;;;;;-143.21;50.22;71294.94;5077012;28;20233;-83
2023/08/20 01:05:05;;;;;;;9.98;7.90;;;;;;;-143.21;50.64;71304.84;5077196;28;20209;-84
2023/08/20 01:07:44;;;;;;;11.00;7.95;;;;;;;-143.21;50.80;71314.75;5076970;28;20551;-83
2023/08/20 01:10:19;;;;;;;14.10;8.50;;;;;;;-143.21;50.63;71324.66;5077176;28;20201;-85
2023/08/20 01:12:47;;;;;;;10.93;7.70;;;;;;;-143.21;50.94;71324.66;5077355;28;20181;-83
2023/08/20 01:15:15;;;;;;;10.43;7.47;;;;;;;-143.21;50.89;71316.75;5077430;28;20294;-83
2023/08/20 01:17:42;;;;;;;13.73;8.38;;;;;;;-143.21;51.02;71320.69;5076041;28;20194;-84
2023/08/20 01:20:10;;;;;;;9.20;7.63;;;;;;;-143.21;50.93;71320.69;5073691;28;20221;-84
2023/08/20 01:23:00;;;;;;;11.77;8.30;;;;;;;-143.21;51.10;71320.69;5075336;28;20201;-83
2023/08/20 01:25:40;;;;;;;12.15;8.50;;;;;;;-143.21;51.23;71324.66;5074112;28;20216;-84
2023/08/20 01:28:21;;;;;;;13.23;8.50;;;;;;;-143.21;50.97;71320.69;5073526;28;20201;-82
2023/08/20 01:30:49;;;;;;;12.27;8.77;;;;;;;-143.21;51.04;71320.69;5073328;28;20197;-82
2023/08/20 01:33:17;;;;;;;13.13;8.85;;;;;;;-143.21;51.20;71322.69;5055830;28;20205;-85
2023/08/20 01:35:43;;;;;;;11.20;8.30;;;;;;;-143.21;50.97;71308.81;5073621;28;20198;-85
2023/08/20 01:38:10;;;;;;;10.00;8.07;;;;;;;-143.21;50.94;71304.84;5073775;28;20197;-84
2023/08/20 01:40:37;;;;;;;12.75;8.90;;;;;;;-143.21;50.79;71306.81;5073778;28;20217;-81
2023/08/20 01:43:04;;;;;;;11.40;8.65;;;;;;;-143.21;50.92;71304.84;5072697;28;20628;-83
2023/08/20 01:45:32;;;;;;;11.23;8.75;;;;;;;-143.21;51.10;71308.81;5072974;28;20205;-82
2023/08/20 01:47:59;;;;;;;9.23;8.20;;;;;;;-143.21;51.04;71302.84;5072978;28;20198;-84
2023/08/20 01:50:26;;;;;;;15.20;9.82;;;;;;;-143.21;51.03;71304.84;5073209;28;20196;-84
2023/08/20 01:52:53;;;;;;;12.38;8.80;;;;;;;-143.21;51.29;71302.84;5072920;28;20197;-83
2023/08/20 01:55:20;;;;;;;11.35;8.75;;;;;;;-143.21;51.38;71310.78;5072580;28;20220;-83
2023/08/20 01:57:46;;;;;;;13.18;9.07;;;;;;;-143.21;51.62;71312.78;5073255;28;20204;-85
2023/08/20 02:00:14;;;;;;;10.88;8.82;;;;;;;-143.21;51.46;71304.84;5074203;28;20222;-85
2023/08/20 02:02:43;;;;;;;12.20;8.80;;;;;;;-143.21;51.65;71302.84;5073968;28;20198;-84
2023/08/20 02:05:10;;;;;;;14.43;9.00;;;;;;;-143.21;51.70;71300.88;5082989;28;20197;-85
2023/08/20 02:07:37;;;;;;;11.65;8.75;;;;;;;-143.21;51.65;71302.84;5075636;28;20233;-85
2023/08/20 02:10:04;;;;;;;12.98;9.18;;;;;;;-143.21;51.54;71300.88;5074206;28;20204;-85
2023/08/20 02:12:31;;;;;;;12.80;9.07;;;;;;;-143.21;51.49;71304.84;5059549;28;20194;-85
2023/08/20 02:14:59;;;;;;;13.52;9.00;;;;;;;-143.21;51.57;71288.97;5072977;28;20201;-84
2023/08/20 02:17:25;;;;;;;12.90;9.07;;;;;;;-143.21;51.33;71287.00;5073093;28;20193;-84
2023/08/20 02:19:54;;;;;;;11.77;8.95;;;;;;;-143.21;51.31;71287.00;5073266;28;20670;-84
2023/08/20 02:22:20;;;;;;;12.90;8.73;;;;;;;-143.21;51.36;71275.09;5072910;28;20189;-84
2023/08/20 02:24:47;;;;;;;13.05;9.07;;;;;;;-143.21;51.67;71296.91;5072441;28;20570;-84
2023/08/20 02:27:14;;;;;;;13.98;9.27;;;;;;;-143.21;51.63;71310.78;5073077;28;20200;-84
2023/08/20 02:29:41;;;;;;;18.13;9.43;;;;;;;-143.21;52.12;71316.75;5058294;28;20229;-84
2023/08/20 02:32:08;;;;;;;14.43;8.85;;;;;;;-143.21;52.13;71316.75;5065394;28;20205;-81
2023/08/20 02:34:35;;;;;;;12.20;9.10;;;;;;;-143.21;52.07;71312.78;5072073;28;20229;-81
2023/08/20 02:37:03;;;;;;;14.82;9.45;;;;;;;-143.21;51.92;71310.78;5073149;28;20197;-82
2023/08/20 02:39:30;;;;;;;12.95;9.18;;;;;;;-143.21;52.54;71328.63;5072230;28;20212;-82
2023/08/20 02:41:57;;;;;;;13.00;9.80;;;;;;;-143.21;52.97;71342.50;5072157;28;20338;-84
2023/08/20 02:44:27;;;;;;;12.60;10.23;;;;;;;-143.21;52.41;71346.47;5071760;28;20201;-84
2023/08/20 02:46:54;;;;;;;13.13;9.60;;;;;;;-143.21;52.86;71366.31;5072188;28;20201;-84
2023/08/20 02:49:20;;;;;;;12.30;9.63;;;;;;;-143.21;53.19;71364.31;5072182;28;20194;-84
2023/08/20 02:51:47;;;;;;;17.13;10.20;;;;;;;-143.21;53.09;71372.25;5073045;28;20193;-84
2023/08/20 02:54:15;;;;;;;15.25;9.20;;;;;;;-143.21;53.41;71398.03;5072339;28;20229;-84
2023/08/20 02:56:42;;;;;;;13.48;9.90;;;;;;;-143.21;54.04;71405.94;5072109;28;20205;-83
2023/08/20 02:59:09;;;;;;;16.13;9.80;;;;;;;-143.21;54.19;71415.88;5072149;28;20193;-86
2023/08/20 03:01:38;;;;;;;12.85;10.18;;;;;;;-143.21;54.53;71423.78;5069081;28;20833;-86
2023/08/20 03:04:06;;;;;;;13.73;10.02;;;;;;;-143.21;54.79;71431.72;5072780;28;20204;-86
2023/08/20 03:06:33;;;;;;;13.20;10.20;;;;;;;-143.21;54.81;71425.78;5071782;28;20209;-86
2023/08/20 03:08:59;;;;;;;16.02;10.50;;;;;;;-143.21;55.16;71437.69;5071326;28;20202;-83
2023/08/20 03:11:28;;;;;;;16.73;9.85;;;;;;;-143.21;55.25;71431.72;5071797;28;20694;-83
2023/08/20 03:13:54;;;;;;;13.20;9.80;;;;;;;-143.21;55.58;71427.75;5071540;28;20193;-83
2023/08/20 03:16:21;;;;;;;15.30;10.00;;;;;;;-143.21;55.14;71435.69;5071272;28;20945;-83
2023/08/20 03:18:48;;;;;;;13.80;9.85;;;;;;;-143.21;55.93;71473.38;5070694;28;20629;-83
2023/08/20 03:21:15;;;;;;;14.85;10.00;;;;;;;-143.21;56.71;71495.19;5071575;28;20213;-83
2023/08/20 03:23:42;;;;;;;16.30;10.05;;;;;;;-143.21;57.00;71499.13;5071125;28;20204;-83
2023/08/20 03:26:08;;;;;;;17.63;9.88;;;;;;;-143.21;57.58;71524.91;5071369;28;20193;-82
2023/08/20 03:28:37;;;;;;;19.88;10.43;;;;;;;-143.21;57.87;71530.88;5071527;28;20653;-82
2023/08/20 03:31:04;;;;;;;16.67;10.23;;;;;;;-143.21;58.03;71528.88;5071370;28;20205;-82
2023/08/20 03:33:30;;;;;;;18.63;9.98;;;;;;;-143.21;58.60;71536.81;5071958;28;20215;-90
2023/08/20 03:35:57;;;;;;;19.83;10.32;;;;;;;-143.21;58.40;71534.81;5071774;28;20205;-87
2023/08/20 03:38:24;;;;;;;15.45;10.20;;;;;;;-143.21;58.73;71536.81;5071566;28;20598;-85
2023/08/20 03:40:55;;;;;;;26.17;15.85;;;;;;;-143.21;58.65;71534.81;5071066;28;20715;-83
2023/08/20 03:43:22;;;;;;;16.55;12.25;;;;;;;-143.21;58.82;71548.72;5071190;28;20659;-84
2023/08/20 03:45:52;;;;;;;19.98;10.60;;;;;;;-143.21;59.16;71556.63;5071402;28;20200;-84
2023/08/20 03:48:20;;;;;;;22.70;9.88;;;;;;;-143.21;59.55;71572.50;5071589;28;20189;-84
2023/08/20 03:50:47;;;;;;;15.77;10.32;;;;;;;-143.21;60.31;71588.38;5071592;28;20262;-84
2023/08/20 03:53:13;;;;;;;17.45;10.75;;;;;;;-143.21;60.31;71582.41;5070913;28;20575;-84
2023/08/20 03:55:40;;;;;;;16.70;10.30;;;;;;;-143.21;60.42;71592.31;5071558;28;20197;-82
2023/08/20 03:58:08;;;;;;;15.30;10.00;;;;;;;-143.21;60.89;71590.34;5071038;28;20209;-83
2023/08/20 04:00:35;;;;;;;16.88;10.18;;;;;;;-143.21;60.81;71582.41;5070886;28;20200;-83
2023/08/20 04:03:04;;;;;;;16.10;9.38;;;;;;;-143.21;60.44;71566.56;5067721;28;20205;-82
2023/08/20 04:05:37;;;;;;;13.35;9.75;;;;;;;-143.21;60.47;71568.53;5071260;28;20247;-82
2023/08/20 04:08:04;;;;;;;18.55;10.15;;;;;;;-143.21;60.10;71564.56;5071101;28;20180;-85
2023/08/20 04:10:31;;;;;;;16.85;9.63;;;;;;;-143.21;60.31;71570.53;5071368;28;20207;-85
2023/08/20 04:12:58;;;;;;;19.30;10.15;;;;;;;-143.21;60.70;71568.53;5072294;28;20668;-85
2023/08/20 04:15:24;;;;;;;15.98;9.95;;;;;;;-143.21;60.45;71572.50;5071388;28;20300;-85
2023/08/20 04:17:53;;;;;;;12.07;9.95;;;;;;;-143.21;60.92;71578.44;5071250;28;20197;-85
2023/08/20 04:20:21;;;;;;;12.75;9.38;;;;;;;-143.21;61.05;71562.59;5071403;28;20208;-84
2023/08/20 04:22:48;;;;;;;15.88;9.82;;;;;;;-143.21;60.67;71554.66;5071237;28;20228;-85
2023/08/20 04:25:15;;;;;;;14.40;10.18;;;;;;;-143.21;60.50;71546.72;5071118;28;20206;-85
2023/08/20 04:27:42;;;;;;;14.35;10.30;;;;;;;-143.21;60.44;71548.72;5071141;28;20189;-85
2023/08/20 04:30:10;;;;;;;14.48;9.77;;;;;;;-143.21;60.22;71542.75;5071091;28;20583;-84
2023/08/20 04:32:37;;;;;;;19.23;10.93;;;;;;;-143.21;60.21;71554.66;5055593;28;20253;-85
2023/08/20 04:35:04;;;;;;;16.10;10.40;;;;;;;-143.21;60.75;71560.59;5051211;28;20198;-86
2023/08/20 04:37:33;;;;;;;15.38;10.10;;;;;;;-143.21;60.98;71566.56;5066895;28;20598;-85
2023/08/20 04:39:59;;;;;;;16.48;10.55;;;;;;;-143.21;61.04;71578.44;5070636;28;20205;-84
2023/08/20 04:42:26;;;;;;;19.90;10.70;;;;;;;-143.21;60.80;71576.47;5070446;28;20598;-85
2023/08/20 04:44:53;;;;;;;14.50;10.07;;;;;;;-143.21;60.91;71572.50;5070896;28;20213;-84
2023/08/20 04:47:20;;;;;;;15.27;10.18;;;;;;;-143.21;60.65;71546.72;5071024;28;20660;-83
2023/08/20 04:49:47;;;;;;;21.33;11.75;;;;;;;-143.21;60.05;71526.91;5070502;28;20201;-84
2023/08/20 04:52:14;;;;;;;15.90;10.50;;;;;;;-143.21;59.77;71515.00;5062808;28;20197;-84
2023/08/20 04:54:42;;;;;;;16.88;10.75;;;;;;;-143.21;59.52;71509.06;5073242;28;20248;-84
2023/08/20 04:57:09;;;;;;;14.98;10.55;;;;;;;-143.21;60.01;71518.97;5074024;28;20205;-84
2023/08/20 04:59:35;;;;;;;19.50;10.48;;;;;;;-143.21;59.42;71513.03;5074666;28;20200;-84
2023/08/20 05:02:02;;;;;;;18.98;10.73;;;;;;;-143.21;59.50;71505.09;5074739;28;20225;-85
2023/08/20 05:04:29;;;;;;;14.90;9.68;;;;;;;-143.21;59.13;71501.13;5074439;28;20200;-85
2023/08/20 05:06:56;;;;;;;21.60;10.98;;;;;;;-143.21;59.33;71503.09;5056506;28;20250;-85
2023/08/20 05:09:23;;;;;;;19.20;10.05;;;;;;;-143.21;59.28;71499.13;5074759;28;20280;-84
2023/08/20 05:11:51;;;;;;;16.63;9.98;;;;;;;-143.21;58.96;71489.22;5074768;28;20201;-85
2023/08/20 05:14:18;;;;;;;14.60;10.05;;;;;;;-143.21;58.34;71485.25;5074306;28;20204;-82
2023/08/20 05:16:44;;;;;;;12.70;9.90;;;;;;;-143.21;58.08;71483.28;5074205;28;20185;-82
2023/08/20 05:19:11;;;;;;;12.02;9.13;;;;;;;-143.21;58.16;71475.34;5073989;28;20291;-82
2023/08/20 05:21:38;;;;;;;17.52;9.30;;;;;;;-143.21;57.79;71463.44;5073782;28;20229;-83
2023/08/20 05:24:06;;;;;;;15.10;9.43;;;;;;;-143.21;57.59;71459.47;5075087;28;20197;-83
2023/08/20 05:26:32;;;;;;;13.93;9.88;;;;;;;-143.21;57.32;71435.69;5074160;28;20250;-83
2023/08/20 05:29:01;;;;;;;12.48;9.68;;;;;;;-143.21;57.11;71435.69;5074037;28;20189;-83
2023/08/20 05:31:28;;;;;;;18.70;9.68;;;;;;;-143.21;56.92;71419.84;5067690;28;20259;-83
2023/08/20 05:33:54;;;;;;;13.88;9.77;;;;;;;-143.21;56.84;71423.78;5058987;28;20243;-84
2023/08/20 05:36:21;;;;;;;15.98;9.88;;;;;;;-143.21;57.27;71425.78;5074592;28;20228;-84
2023/08/20 05:38:48;;;;;;;16.65;10.10;;;;;;;-143.21;57.40;71419.84;5074124;28;20589;-84
2023/08/20 05:41:15;;;;;;;17.42;9.82;;;;;;;-143.21;57.29;71409.91;5074130;28;20221;-84
2023/08/20 05:43:42;;;;;;;18.33;10.15;;;;;;;-143.21;57.64;71413.88;5073630;28;20695;-83
2023/08/20 05:46:10;;;;;;;14.40;9.95;;;;;;;-143.21;57.70;71407.94;5073098;28;20193;-82
2023/08/20 05:48:37;;;;;;;16.60;9.65;;;;;;;-143.21;57.66;71403.97;5072826;28;20194;-82
2023/08/20 05:51:04;;;;;;;13.73;9.80;;;;;;;-143.21;57.75;71398.03;5073377;28;20200;-82
2023/08/20 05:53:31;;;;;;;11.75;9.27;;;;;;;-143.21;57.11;71394.06;5061982;28;20198;-82
2023/08/20 05:55:59;;;;;;;13.45;10.07;;;;;;;-143.21;57.23;71382.16;5073300;28;20200;-83
2023/08/20 05:58:25;;;;;;;12.93;9.88;;;;;;;-143.21;57.17;71382.16;5073232;28;20186;-83
2023/08/20 06:00:52;;;;;;;19.95;9.30;;;;;;;-143.21;57.06;71374.22;5065959;28;20193;-83
2023/08/20 06:03:20;;;;;;;16.08;10.00;;;;;;;-143.21;57.15;71364.31;5058398;28;20240;-83
2023/08/20 06:05:47;;;;;;;15.02;9.55;;;;;;;-143.21;56.94;71360.34;5064703;28;20191;-83
2023/08/20 06:08:14;;;;;;;13.18;8.90;;;;;;;-143.21;56.74;71344.50;5063093;28;20198;-83
2023/08/20 06:10:41;;;;;;;21.38;9.88;;;;;;;-143.21;56.53;71340.53;5063162;28;20198;-83
2023/08/20 06:13:07;;;;;;;13.90;9.90;;;;;;;-143.21;56.30;71344.50;5056824;28;20203;-83
2023/08/20 06:15:34;;;;;;;13.10;9.30;;;;;;;-143.21;56.08;71336.56;5066401;28;20208;-83
2023/08/20 06:18:01;;;;;;;17.38;9.38;;;;;;;-143.21;56.19;71328.63;5063196;28;20213;-83
2023/08/20 06:20:29;;;;;;;13.73;9.55;;;;;;;-143.21;55.93;71312.78;5063491;28;20197;-82
2023/08/20 06:22:56;;;;;;;15.45;10.15;;;;;;;-143.21;55.74;71308.81;5066356;28;20220;-83
2023/08/20 06:25:23;;;;;;;15.38;9.90;;;;;;;-143.21;55.95;71292.94;5072773;28;20193;-83
2023/08/20 06:27:49;;;;;;;14.48;9.82;;;;;;;-143.21;55.48;71279.06;5054282;28;20194;-82
2023/08/20 06:30:16;;;;;;;16.73;9.35;;;;;;;-143.21;55.70;71263.22;5052558;28;20194;-82
2023/08/20 06:32:45;;;;;;;20.55;9.75;;;;;;;-143.21;55.25;71253.28;5064745;28;20209;-82
2023/08/20 06:35:12;;;;;;;14.63;9.63;;;;;;;-143.21;54.47;71237.44;5071601;28;20197;-83
2023/08/20 06:37:41;;;;;;;16.10;9.63;;;;;;;-143.21;53.93;71221.56;5072290;28;20687;-83
2023/08/20 06:40:09;;;;;;;18.08;9.20;;;;;;;-143.21;54.14;71211.66;5073935;28;20196;-85
2023/08/20 06:42:36;;;;;;;12.57;8.57;;;;;;;-143.21;53.62;71195.81;5072557;28;20229;-84
2023/08/20 06:45:03;;;;;;;18.30;9.27;;;;;;;-143.21;52.99;71183.91;5072310;28;20201;-84
2023/08/20 06:47:30;;;;;;;14.02;9.00;;;;;;;-143.21;52.64;71175.97;5072387;28;20193;-83
2023/08/20 06:49:57;;;;;;;12.98;9.10;;;;;;;-143.21;52.50;71172.00;5072899;28;20209;-83
2023/08/20 06:52:24;;;;;;;15.23;9.50;;;;;;;-143.21;52.41;71175.97;5072014;28;20204;-83
2023/08/20 06:54:52;;;;;;;15.38;9.38;;;;;;;-143.21;52.39;71166.06;5072106;28;20221;-83
2023/08/20 06:57:19;;;;;;;14.98;10.63;;;;;;;-143.21;52.18;71158.13;5072221;28;20185;-84
2023/08/20 06:59:46;;;;;;;13.10;9.55;;;;;;;-143.21;52.02;71152.19;5073662;28;20208;-83
2023/08/20 07:02:13;;;;;;;14.93;9.75;;;;;;;-143.21;52.19;71136.31;5071108;28;20225;-82
2023/08/20 07:04:40;;;;;;;19.30;9.35;;;;;;;-143.21;52.09;71132.38;5071855;28;20258;-84
2023/08/20 07:07:07;;;;;;;12.52;8.95;;;;;;;-143.21;51.21;71116.50;5071980;28;20204;-84
2023/08/20 07:09:35;;;;;;;11.90;8.60;;;;;;;-143.21;50.60;71102.63;5072131;28;20198;-82
2023/08/20 07:12:03;;;;;;;13.30;8.98;;;;;;;-143.21;50.17;71090.72;5071863;28;20201;-83
2023/08/20 07:14:30;;;;;;;15.23;8.90;;;;;;;-143.21;49.56;71070.91;5071606;28;20196;-84
2023/08/20 07:16:57;;;;;;;13.88;8.50;;;;;;;-143.21;49.47;71066.94;5071041;28;20213;-84
2023/08/20 07:19:23;;;;;;;15.20;8.10;;;;;;;-143.21;49.20;71059.00;5071649;28;20197;-84
2023/08/20 07:21:50;;;;;;;12.10;7.85;;;;;;;-143.21;48.64;71051.09;5072057;28;20598;-83
2023/08/20 07:24:18;;;;;;;12.25;8.25;;;;;;;-143.21;47.95;71035.22;5072079;28;20201;-82
2023/08/20 07:26:44;;;;;;;11.25;7.40;;;;;;;-143.21;47.82;71023.34;5071431;28;20198;-83
2023/08/20 07:29:12;;;;;;;11.88;7.53;;;;;;;-143.21;47.13;71015.41;5073137;28;20213;-82
2023/08/20 07:31:39;;;;;;;13.23;7.75;;;;;;;-143.21;47.57;71005.50;5072868;28;20197;-83
2023/08/20 07:34:09;;;;;;;13.10;7.30;;;;;;;-143.21;46.75;71001.53;5076688;28;20200;-83
2023/08/20 07:36:36;;;;;;;10.75;7.40;;;;;;;-143.21;46.34;70979.72;5074537;28;20594;-84
2023/08/20 07:39:03;;;;;;;11.70;7.40;;;;;;;-143.21;45.87;70973.78;5071675;28;20284;-83
2023/08/20 07:41:30;;;;;;;8.13;7.15;;;;;;;-143.21;45.87;70961.88;5071709;28;20201;-84
2023/08/20 07:43:57;;;;;;;11.32;7.47;;;;;;;-143.21;45.94;70951.97;5071638;28;20224;-84
2023/08/20 07:46:25;;;;;;;10.50;6.95;;;;;;;-143.21;45.36;70938.09;5071914;28;20212;-83
2023/08/20 07:48:52;;;;;;;9.98;7.45;;;;;;;-143.21;45.15;70922.22;5071426;28;20292;-84
2023/08/20 07:51:19;;;;;;;10.27;6.47;;;;;;;-143.21;45.28;70910.34;5071057;28;20194;-79
2023/08/20 07:53:46;;;;;;;8.88;7.18;;;;;;;-143.21;45.74;70910.34;5070675;28;20226;-78
2023/08/20 07:56:13;;;;;;;14.43;6.50;;;;;;;-143.21;44.16;70886.53;5056655;28;20197;-78
2023/08/20 07:58:45;;;;;;;12.00;7.35;;;;;;;-143.21;44.04;70866.72;5050400;28;20190;-78
2023/08/20 08:01:13;;;;;;;9.00;7.18;;;;;;;-143.21;43.44;70838.97;5054885;28;20656;-79
2023/08/20 08:03:42;;;;;;;11.07;7.30;;;;;;;-143.21;43.43;70837.00;5070821;28;20223;-77
2023/08/20 08:06:09;;;;;;;8.60;6.82;;;;;;;-143.21;43.41;70838.97;5071051;28;20193;-83
2023/08/20 08:08:36;;;;;;;12.20;7.32;;;;;;;-143.21;43.45;70831.03;5071499;28;20247;-81
2023/08/20 08:11:03;;;;;;;8.20;7.07;;;;;;;-143.21;43.01;70821.13;5071048;28;20280;-81
2023/08/20 08:13:29;;;;;;;12.75;6.72;;;;;;;-143.21;42.87;70819.16;5070272;28;20208;-77
2023/08/20 08:15:56;;;;;;;10.43;7.25;;;;;;;-143.21;42.61;70813.19;5070602;28;20243;-77
2023/08/20 08:18:23;;;;;;;12.80;6.60;;;;;;;-143.21;42.09;70821.13;5070881;28;20201;-77
2023/08/20 08:20:51;;;;;;;12.60;6.63;;;;;;;-143.21;42.76;70829.06;5070383;28;20193;-77
2023/08/20 08:23:18;;;;;;;8.88;6.53;;;;;;;-143.21;42.73;70838.97;5070541;28;20225;-78
2023/08/20 08:25:45;;;;;;;12.63;6.80;;;;;;;-143.21;42.93;70842.94;5070428;28;20205;-77
2023/08/20 08:28:12;;;;;;;10.23;7.63;;;;;;;-143.21;42.57;70831.03;5071456;28;20197;-77
2023/08/20 08:30:39;;;;;;;9.98;6.97;;;;;;;-143.21;42.49;70809.25;5074140;28;20196;-77
2023/08/20 08:33:06;;;;;;;7.90;6.72;;;;;;;-143.21;41.88;70811.22;5074313;28;20202;-77
2023/08/20 08:35:38;;;;;;;11.40;6.45;;;;;;;-143.21;41.46;70807.25;5074629;28;20202;-79
2023/08/20 08:38:07;;;;;;;14.00;6.63;;;;;;;-143.21;41.80;70807.25;5074447;28;20830;-80
2023/08/20 08:40:34;;;;;;;8.32;6.45;;;;;;;-143.21;40.97;70795.38;5074576;28;21265;-78
2023/08/20 08:43:02;;;;;;;9.60;6.63;;;;;;;-143.21;41.37;70789.41;5074380;28;20224;-80
2023/08/20 08:45:30;;;;;;;13.02;6.53;;;;;;;-143.21;41.49;70797.34;5074012;28;20202;-78
2023/08/20 08:47:57;;;;;;;12.20;6.55;;;;;;;-143.21;41.38;70797.34;5074136;28;20197;-78
2023/08/20 08:50:24;;;;;;;9.73;6.18;;;;;;;-143.21;40.91;70821.13;5074127;28;20656;-71
2023/08/20 08:52:52;;;;;;;9.35;6.10;;;;;;;-143.21;40.41;70821.13;5074448;28;20208;-77
2023/08/20 08:55:20;;;;;;;9.50;5.80;;;;;;;-143.21;40.13;70811.22;5073752;28;20256;-78
2023/08/20 08:57:47;;;;;;;6.95;5.97;;;;;;;-143.21;39.67;70785.44;5073642;28;20576;-78
2023/08/20 09:00:15;;;;;;;8.70;6.32;;;;;;;-143.21;39.95;70773.56;5073660;28;20193;-77
2023/08/20 09:02:42;;;;;;;8.27;5.80;;;;;;;-143.21;39.51;70751.75;5073157;28;20652;-77
2023/08/20 09:05:09;;;;;;;11.65;6.03;;;;;;;-143.21;39.23;70747.78;5073650;28;20635;-78
2023/08/20 09:07:36;;;;;;;9.13;5.85;;;;;;;-143.21;39.48;70749.78;5073785;28;20612;-78
2023/08/20 09:10:03;;;;;;;6.85;5.60;;;;;;;-143.21;39.17;70751.75;5073924;28;20190;-79
2023/08/20 09:12:35;;;;;;;11.43;5.53;;;;;;;-143.21;38.00;70757.69;5073593;28;20242;-81
2023/08/20 09:15:03;;;;;;;7.45;5.50;;;;;;;-143.21;37.82;70749.78;5073706;28;20192;-79
2023/08/20 09:17:30;;;;;;;8.68;5.90;;;;;;;-143.21;38.16;70733.91;5073293;28;20736;-78
2023/08/20 09:19:58;;;;;;;8.85;6.10;;;;;;;-143.21;37.96;70731.94;5073509;28;20198;-78
2023/08/20 09:22:25;;;;;;;9.65;6.00;;;;;;;-143.21;38.45;70753.72;5073843;28;20265;-79
2023/08/20 09:24:55;;;;;;;7.32;5.32;;;;;;;-143.21;38.10;70741.84;5073669;28;20267;-80
2023/08/20 09:27:23;;;;;;;7.13;5.72;;;;;;;-143.21;37.89;70725.97;5074396;28;20262;-80
2023/08/20 09:29:53;;;;;;;8.32;5.68;;;;;;;-143.21;37.73;70735.91;5073627;28;20292;-80
2023/08/20 09:32:21;;;;;;;7.82;5.30;;;;;;;-143.21;37.38;70706.16;5073357;28;20252;-80
2023/08/20 09:34:50;;;;;;;9.00;5.75;;;;;;;-143.21;37.49;70714.09;5073699;28;20205;-78
2023/08/20 09:37:18;;;;;;;7.82;5.30;;;;;;;-143.21;37.81;70682.38;5074343;28;20288;-83
2023/08/20 09:39:45;;;;;;;7.68;5.60;;;;;;;-143.21;37.10;70654.63;5072185;28;20196;-78
2023/08/20 09:42:13;;;;;;;6.07;5.38;;;;;;;-143.21;36.12;70630.84;5073175;28;20718;-82
2023/08/20 09:44:41;;;;;;;11.23;5.50;;;;;;;-143.21;36.47;70642.72;5074707;28;20208;-84
2023/08/20 09:47:10;;;;;;;6.72;5.15;;;;;;;-143.21;36.63;70630.84;5073515;28;20194;-84
2023/08/20 09:49:39;;;;;;;9.27;5.18;;;;;;;-143.21;36.21;70628.84;5073334;28;20213;-83
2023/08/20 09:52:08;;;;;;;10.48;5.05;;;;;;;-143.21;35.90;70591.19;5072480;28;20192;-78
2023/08/20 09:54:52;;;;;;;5.43;4.03;;;;;;;-143.21;34.70;70565.44;5072545;28;20252;-79
2023/08/20 09:57:27;;;;;;;5.65;4.63;;;;;;;-143.21;35.13;70521.81;5072217;28;20186;-79
2023/08/20 09:59:55;;;;;;;8.52;4.50;;;;;;;-143.21;33.61;70484.16;5072461;28;20204;-79
2023/08/20 10:02:25;;;;;;;5.53;4.13;;;;;;;-143.21;32.77;70468.31;5072895;28;20216;-79
2023/08/20 10:04:52;;;;;;;6.63;3.92;;;;;;;-143.21;33.12;70454.44;5073036;28;20196;-79
2023/08/20 10:07:20;;;;;;;6.45;4.00;;;;;;;-143.21;33.25;70422.72;5072319;28;20216;-79
2023/08/20 10:09:47;;;;;;;9.50;4.05;;;;;;;-143.21;32.30;70389.03;5072779;28;20258;-79
2023/08/20 10:12:14;;;;;;;6.20;4.20;;;;;;;-143.21;32.06;70363.25;5073189;28;20225;-79
2023/08/20 10:14:42;;;;;;;6.47;4.00;;;;;;;-143.21;31.83;70361.28;5072730;28;20656;-79
2023/08/20 10:17:09;;;;;;;5.82;3.95;;;;;;;-143.21;31.75;70351.38;5072857;28;20201;-79
2023/08/20 10:19:38;;;;;;;4.47;4.00;;;;;;;-143.21;31.82;70333.53;5072969;28;20190;-79
2023/08/20 10:22:07;;;;;;;5.38;4.00;;;;;;;-143.21;31.64;70301.81;5072949;28;20212;-79
2023/08/20 10:24:48;;;;;;;8.52;4.10;;;;;;;-143.21;30.81;70282.00;5072493;28;20225;-78
2023/08/20 10:27:26;;;;;;;7.75;3.83;;;;;;;-143.21;30.96;70264.16;5072723;28;20186;-79
2023/08/20 10:29:54;;;;;;;5.30;3.78;;;;;;;-143.21;31.20;70248.28;5071866;28;20235;-79
2023/08/20 10:32:22;;;;;;;4.45;3.80;;;;;;;-143.21;30.78;70226.50;5072346;28;20197;-78
2023/08/20 10:34:58;;;;;;;7.20;4.00;;;;;;;-143.21;30.88;70214.59;5072305;28;20185;-79
2023/08/20 10:37:29;;;;;;;7.38;4.20;;;;;;;-143.21;30.30;70200.72;5072072;28;20192;-79
2023/08/20 10:39:57;;;;;;;4.43;3.60;;;;;;;-143.21;30.56;70178.94;5072179;28;20216;-79
2023/08/20 10:42:27;;;;;;;3.92;3.53;;;;;;;-143.21;30.44;70169.03;5072525;28;20190;-79
2023/08/20 10:45:02;;;;;;;3.95;3.50;;;;;;;-143.21;30.25;70149.19;5071820;28;20221;-79
2023/08/20 10:47:42;;;;;;;4.88;4.05;;;;;;;-143.21;29.83;70151.19;5072442;28;20228;-79
2023/08/20 10:50:11;;;;;;;4.25;3.63;;;;;;;-143.21;29.84;70137.31;5072266;28;20193;-79
2023/08/20 10:52:42;;;;;;;4.07;3.67;;;;;;;-143.21;30.07;70141.28;5072165;28;20302;-79
2023/08/20 10:55:09;;;;;;;4.65;3.78;;;;;;;-143.21;29.75;70125.41;5071840;28;20286;-79
2023/08/20 10:57:36;;;;;;;7.90;4.05;;;;;;;-143.21;30.03;70113.53;5072266;28;20659;-79
2023/08/20 11:00:11;;;;;;;4.22;3.70;;;;;;;-143.21;29.33;70109.56;5072723;28;20204;-79
2023/08/20 11:02:38;;;;;;;5.22;3.63;;;;;;;-143.21;29.30;70103.63;5071786;28;20747;-79
2023/08/20 11:05:17;;;;;;;7.20;3.72;;;;;;;-143.21;29.61;70127.41;5072175;28;20205;-79
2023/08/20 11:07:47;;;;;;;4.10;3.70;;;;;;;-143.21;29.28;70113.53;5071375;28;20196;-79
2023/08/20 11:10:15;;;;;;;9.68;3.70;;;;;;;-143.21;29.15;70083.81;5071940;28;20568;-79
2023/08/20 11:12:42;;;;;;;6.38;3.90;;;;;;;-143.21;29.02;70062.00;5071631;28;20699;-79